Time;durP1;ratioP1;P1;durP2;ratioP2;P2;SDS_P1;SDS_P2;PMS_P1;PMS_P2;Temp;Humidity;BMP_temperature;BMP_pressure;BME280_temperature;BME280_humidity;BME280_pressure;Samples;Min_cycle;Max_cycle;Signal;HPM_P1;HPM_P2
2023/09/15 00:00:17;;;;;;;6.38;5.13;;;12.10;99.90;;;;;;4998310;28;96926;-37
2023/09/15 00:02:43;;;;;;;10.30;5.07;;;12.10;99.90;;;;;;4998336;28;93226;-36
2023/09/15 00:05:12;;;;;;;8.00;4.43;;;12.10;99.90;;;;;;4998302;28;94296;-33
2023/09/15 00:07:38;;;;;;;5.80;4.53;;;12.10;99.90;;;;;;4997801;28;94562;-36
2023/09/15 00:10:07;;;;;;;8.90;5.43;;;12.10;99.90;;;;;;4998509;28;94495;-33
2023/09/15 00:12:34;;;;;;;8.88;4.65;;;12.00;99.90;;;;;;4998840;28;93133;-35
2023/09/15 00:15:07;;;;;;;7.43;4.60;;;12.00;99.90;;;;;;4998262;28;94506;-35
2023/09/15 00:17:36;;;;;;;6.38;4.32;;;12.00;99.90;;;;;;4997272;28;95226;-35
2023/09/15 00:20:13;;;;;;;4.93;4.45;;;12.00;99.90;;;;;;4998127;28;93640;-33
2023/09/15 00:22:40;;;;;;;4.35;3.85;;;11.90;99.90;;;;;;4998468;28;93268;-33
2023/09/15 00:25:05;;;;;;;5.55;4.53;;;11.40;99.90;;;;;;4997691;28;94084;-33
2023/09/15 00:27:32;;;;;;;4.32;3.50;;;11.40;99.90;;;;;;4998128;28;95339;-38
2023/09/15 00:29:57;;;;;;;4.45;4.05;;;11.50;99.90;;;;;;4997170;28;96141;-37
2023/09/15 00:32:23;;;;;;;7.05;3.90;;;11.50;99.90;;;;;;4997689;28;93663;-34
2023/09/15 00:34:48;;;;;;;3.92;3.53;;;11.50;99.90;;;;;;4998551;28;92112;-38
2023/09/15 00:37:14;;;;;;;7.55;4.45;;;11.50;99.90;;;;;;4993695;28;94401;-38
2023/09/15 00:39:40;;;;;;;4.63;4.05;;;11.50;99.90;;;;;;4989096;28;93468;-34
2023/09/15 00:42:05;;;;;;;5.70;4.53;;;11.50;99.90;;;;;;4995083;28;94819;-35
2023/09/15 00:44:31;;;;;;;5.72;4.43;;;11.60;99.90;;;;;;4998331;28;92811;-35
2023/09/15 00:46:57;;;;;;;4.55;4.07;;;11.60;99.90;;;;;;4996191;28;95664;-33
2023/09/15 00:49:23;;;;;;;7.75;5.32;;;11.50;99.90;;;;;;4997372;28;93195;-36
2023/09/15 00:51:50;;;;;;;7.70;5.35;;;11.50;99.90;;;;;;4997949;28;94515;-34
2023/09/15 00:54:16;;;;;;;6.25;5.03;;;11.50;99.90;;;;;;4997573;28;94666;-35
2023/09/15 00:56:42;;;;;;;6.75;5.00;;;11.50;99.90;;;;;;4992026;28;94748;-33
2023/09/15 00:59:10;;;;;;;5.63;4.55;;;11.50;99.90;;;;;;4990441;28;94818;-34
2023/09/15 01:01:37;;;;;;;4.72;4.25;;;11.40;99.90;;;;;;4997259;28;93726;-33
2023/09/15 01:04:04;;;;;;;7.47;5.47;;;11.40;99.90;;;;;;4979325;28;94238;-34
2023/09/15 01:06:32;;;;;;;8.20;5.53;;;11.40;99.90;;;;;;4995909;28;96589;-32
2023/09/15 01:08:58;;;;;;;5.78;5.18;;;11.30;99.90;;;;;;4997533;28;95863;-37
2023/09/15 01:11:23;;;;;;;9.23;6.43;;;11.30;99.90;;;;;;4997523;28;93785;-36
2023/09/15 01:13:49;;;;;;;5.50;3.47;;;11.30;99.90;;;;;;4997634;28;92337;-34
2023/09/15 01:17:10;;;;;;;8.88;5.95;;;11.20;99.90;;;;;;4997407;28;94829;-33
2023/09/15 01:19:50;;;;;;;10.80;5.68;;;11.20;99.90;;;;;;4947590;28;94180;-38
2023/09/15 01:22:19;;;;;;;7.75;5.45;;;11.10;99.90;;;;;;4996987;28;94357;-36
2023/09/15 01:24:53;;;;;;;;;;;11.10;99.90;;;;;;4979831;28;94020;-36
2023/09/15 01:27:25;;;;;;;7.30;5.65;;;11.00;99.90;;;;;;4997967;28;95038;-35
2023/09/15 01:29:52;;;;;;;3.67;3.15;;;11.00;99.90;;;;;;4996270;28;94191;-37
2023/09/15 01:32:19;;;;;;;9.75;6.07;;;11.00;99.90;;;;;;4996834;28;93074;-32
2023/09/15 01:34:48;;;;;;;3.88;2.95;;;10.90;99.90;;;;;;4978898;28;94479;-34
2023/09/15 01:37:13;;;;;;;5.82;5.20;;;11.00;99.90;;;;;;4991850;28;95032;-37
2023/09/15 01:39:39;;;;;;;7.55;6.30;;;11.00;99.90;;;;;;4988182;28;92706;-33
2023/09/15 01:42:05;;;;;;;6.65;6.05;;;11.00;99.90;;;;;;4995841;28;94062;-32
2023/09/15 01:44:30;;;;;;;8.23;6.32;;;11.00;99.90;;;;;;4996865;28;94088;-36
2023/09/15 01:46:56;;;;;;;9.52;6.05;;;10.90;99.90;;;;;;4995531;28;94367;-37
2023/09/15 01:49:22;;;;;;;14.30;6.05;;;10.90;99.90;;;;;;4995668;28;93971;-36
2023/09/15 01:51:48;;;;;;;10.32;5.53;;;10.90;99.90;;;;;;4996837;28;93151;-36
2023/09/15 01:54:18;;;;;;;8.75;6.13;;;10.90;99.90;;;;;;4961769;28;94257;-35
2023/09/15 01:56:44;;;;;;;3.67;3.25;;;10.90;99.90;;;;;;4995285;28;95851;-33
2023/09/15 01:59:10;;;;;;;9.90;5.50;;;10.80;99.90;;;;;;4996187;28;96296;-35
2023/09/15 02:01:36;;;;;;;6.05;3.97;;;10.90;99.90;;;;;;4997001;28;92311;-35
2023/09/15 02:04:01;;;;;;;6.20;5.60;;;10.80;99.90;;;;;;4995866;28;92239;-38
2023/09/15 02:06:27;;;;;;;4.82;3.60;;;10.80;99.90;;;;;;4997020;28;94174;-37
2023/09/15 02:08:52;;;;;;;10.32;5.82;;;10.80;99.90;;;;;;4995797;28;94630;-36
2023/09/15 02:11:18;;;;;;;10.55;6.47;;;10.70;99.90;;;;;;4996839;28;93220;-33
2023/09/15 02:13:44;;;;;;;8.13;6.88;;;10.70;99.90;;;;;;4996482;28;94107;-36
2023/09/15 02:16:11;;;;;;;6.38;4.75;;;10.60;99.90;;;;;;4995387;28;94521;-38
2023/09/15 02:18:36;;;;;;;5.57;4.90;;;10.50;99.90;;;;;;4978653;28;95702;-35
2023/09/15 02:21:03;;;;;;;6.05;4.85;;;10.50;99.90;;;;;;4995634;28;94678;-35
2023/09/15 02:23:29;;;;;;;7.28;6.57;;;10.50;99.90;;;;;;4996595;28;94543;-32
2023/09/15 02:25:55;;;;;;;6.32;5.82;;;10.50;99.90;;;;;;4996100;28;94509;-34
2023/09/15 02:28:21;;;;;;;5.70;5.13;;;10.50;99.90;;;;;;4996022;28;94595;-33
2023/09/15 02:30:47;;;;;;;7.60;5.53;;;10.50;99.90;;;;;;4995947;28;94467;-36
2023/09/15 02:33:13;;;;;;;6.45;5.72;;;10.50;99.90;;;;;;4996015;28;94241;-34
2023/09/15 02:35:39;;;;;;;9.77;4.15;;;10.50;99.90;;;;;;4994851;28;94316;-36
2023/09/15 02:38:05;;;;;;;6.75;5.28;;;10.50;99.90;;;;;;4984494;28;94600;-37
2023/09/15 02:40:31;;;;;;;4.25;3.85;;;10.50;99.90;;;;;;4993424;28;92783;-35
2023/09/15 02:42:57;;;;;;;6.45;4.18;;;10.40;99.90;;;;;;4996033;28;95016;-37
2023/09/15 02:45:23;;;;;;;6.32;4.47;;;10.40;99.90;;;;;;4994217;28;95930;-35
2023/09/15 02:47:48;;;;;;;4.93;4.45;;;10.40;99.90;;;;;;4995107;28;96079;-34
2023/09/15 02:50:14;;;;;;;5.88;3.97;;;10.40;99.90;;;;;;4995565;28;94341;-38
2023/09/15 02:52:40;;;;;;;9.57;5.72;;;10.40;99.90;;;;;;4995464;28;93099;-39
2023/09/15 02:55:06;;;;;;;9.45;6.13;;;10.30;99.90;;;;;;4995384;28;94677;-36
2023/09/15 02:57:32;;;;;;;6.60;5.88;;;10.30;99.90;;;;;;4995644;28;94077;-34
2023/09/15 02:59:57;;;;;;;9.15;6.65;;;10.30;99.90;;;;;;4995027;28;94170;-39
2023/09/15 03:02:23;;;;;;;6.70;5.95;;;10.30;99.90;;;;;;4996317;28;93452;-35
2023/09/15 03:04:49;;;;;;;7.70;6.07;;;10.30;99.90;;;;;;4994698;28;94532;-33
2023/09/15 03:07:15;;;;;;;7.93;6.20;;;10.30;99.90;;;;;;4996145;28;94953;-38
2023/09/15 03:09:41;;;;;;;8.73;6.68;;;10.30;99.90;;;;;;4995823;28;94961;-34
2023/09/15 03:12:07;;;;;;;8.27;6.32;;;10.30;99.90;;;;;;4999158;28;95400;-36
2023/09/15 03:14:33;;;;;;;9.15;6.80;;;10.30;99.90;;;;;;4998776;28;94597;-37
2023/09/15 03:16:58;;;;;;;3.55;3.25;;;10.20;99.90;;;;;;4998411;28;95467;-35
2023/09/15 03:19:24;;;;;;;4.07;3.42;;;10.30;99.90;;;;;;4999506;28;92110;-34
2023/09/15 03:21:50;;;;;;;9.82;5.13;;;10.20;99.90;;;;;;4998962;28;94060;-39
2023/09/15 03:24:17;;;;;;;4.90;3.75;;;10.20;99.90;;;;;;4998377;28;93649;-35
2023/09/15 03:26:42;;;;;;;5.95;4.45;;;10.20;99.90;;;;;;4999309;28;93224;-34
2023/09/15 03:29:08;;;;;;;5.47;4.65;;;10.10;99.90;;;;;;4999237;28;92988;-36
2023/09/15 03:31:34;;;;;;;7.03;4.95;;;10.10;99.90;;;;;;4998766;28;95206;-35
2023/09/15 03:33:59;;;;;;;7.40;6.68;;;10.10;99.90;;;;;;4997925;28;95632;-35
2023/09/15 03:36:26;;;;;;;6.28;5.72;;;10.10;99.90;;;;;;4998062;28;95283;-39
2023/09/15 03:38:52;;;;;;;5.38;4.15;;;10.10;99.90;;;;;;4992380;28;93397;-38
2023/09/15 03:41:17;;;;;;;8.13;6.53;;;10.00;99.90;;;;;;4997868;28;94104;-33
2023/09/15 03:43:43;;;;;;;4.95;3.38;;;10.10;99.90;;;;;;4998937;28;95207;-36
2023/09/15 03:46:09;;;;;;;6.97;6.40;;;10.00;99.90;;;;;;4997696;28;94604;-34
2023/09/15 03:48:34;;;;;;;7.50;5.93;;;10.00;99.90;;;;;;4998741;28;92684;-40
2023/09/15 03:51:00;;;;;;;5.20;4.07;;;10.00;99.90;;;;;;4998378;28;94158;-34
2023/09/15 03:53:26;;;;;;;9.95;4.63;;;10.00;99.90;;;;;;4998818;28;94495;-33
2023/09/15 03:55:52;;;;;;;10.90;4.07;;;10.00;99.90;;;;;;4998216;28;94968;-35
2023/09/15 03:58:18;;;;;;;4.05;3.47;;;10.00;99.90;;;;;;4998408;28;93876;-34
2023/09/15 04:00:43;;;;;;;5.22;4.13;;;10.00;99.90;;;;;;4979872;28;93399;-36
2023/09/15 04:03:09;;;;;;;6.03;4.53;;;10.00;99.90;;;;;;4999099;28;94102;-32
2023/09/15 04:05:35;;;;;;;6.68;4.03;;;9.90;99.90;;;;;;4997708;28;94961;-35
2023/09/15 04:08:01;;;;;;;8.00;4.45;;;9.90;99.90;;;;;;4999221;28;94896;-37
2023/09/15 04:10:27;;;;;;;5.65;4.20;;;9.90;99.90;;;;;;4997788;28;93529;-36
2023/09/15 04:12:52;;;;;;;5.95;4.25;;;9.90;99.90;;;;;;4998250;28;94798;-35
2023/09/15 04:15:18;;;;;;;4.07;3.70;;;9.90;99.90;;;;;;4997938;28;96054;-35
2023/09/15 04:17:44;;;;;;;18.85;6.15;;;9.90;99.90;;;;;;4996881;28;94260;-36
2023/09/15 04:20:10;;;;;;;6.72;4.20;;;9.90;99.90;;;;;;4979661;28;94614;-35
2023/09/15 04:22:40;;;;;;;6.47;5.88;;;9.90;99.90;;;;;;4978757;28;94390;-35
2023/09/15 04:25:08;;;;;;;5.28;3.95;;;9.90;99.90;;;;;;4997041;28;95974;-35
2023/09/15 04:27:34;;;;;;;8.70;7.32;;;9.90;99.90;;;;;;4980080;28;93544;-34
2023/09/15 04:30:00;;;;;;;8.20;4.38;;;9.90;99.90;;;;;;4985262;28;92751;-35
2023/09/15 04:32:26;;;;;;;10.13;7.35;;;9.90;99.90;;;;;;4997745;28;94318;-35
2023/09/15 04:34:53;;;;;;;4.40;3.95;;;9.90;99.90;;;;;;4997265;28;94727;-38
2023/09/15 04:37:19;;;;;;;9.70;7.55;;;9.80;99.90;;;;;;4993363;28;94751;-33
2023/09/15 04:39:45;;;;;;;9.52;7.00;;;9.80;99.90;;;;;;4996130;28;91799;-34
2023/09/15 04:42:12;;;;;;;10.75;8.18;;;9.70;99.90;;;;;;4997283;28;95126;-35
2023/09/15 04:44:38;;;;;;;8.82;6.78;;;9.70;99.90;;;;;;4998082;28;94526;-37
2023/09/15 04:47:04;;;;;;;8.40;4.63;;;9.70;99.90;;;;;;4996802;28;95598;-34
2023/09/15 04:49:29;;;;;;;9.15;6.55;;;9.60;99.90;;;;;;4997940;28;93309;-38
2023/09/15 04:51:55;;;;;;;4.47;3.63;;;9.60;99.90;;;;;;4997203;28;94569;-34
2023/09/15 04:54:21;;;;;;;5.85;3.67;;;9.50;99.90;;;;;;4997315;28;94628;-34
2023/09/15 04:56:46;;;;;;;8.80;4.07;;;9.60;99.90;;;;;;4997949;28;94236;-38
2023/09/15 04:59:15;;;;;;;5.68;3.78;;;9.60;99.90;;;;;;4997539;28;92424;-37
2023/09/15 05:01:42;;;;;;;7.93;7.13;;;9.50;99.90;;;;;;4997754;28;95126;-34
2023/09/15 05:04:08;;;;;;;6.63;5.53;;;9.50;99.90;;;;;;4997771;28;94959;-38
2023/09/15 05:06:34;;;;;;;6.30;4.05;;;9.60;99.90;;;;;;4998028;28;95201;-33
2023/09/15 05:08:59;;;;;;;8.55;4.55;;;9.50;99.90;;;;;;4979115;28;94446;-38
2023/09/15 05:11:25;;;;;;;6.50;4.88;;;9.50;99.90;;;;;;4996928;28;95708;-33
2023/09/15 05:13:51;;;;;;;4.72;4.03;;;9.50;99.90;;;;;;4997030;28;95711;-32
2023/09/15 05:16:17;;;;;;;4.30;3.90;;;9.50;99.90;;;;;;4997585;28;95215;-36
2023/09/15 05:18:43;;;;;;;6.30;5.00;;;9.50;99.90;;;;;;4979712;28;94414;-34
2023/09/15 05:21:08;;;;;;;4.43;4.03;;;9.50;99.90;;;;;;4996970;28;94748;-39
2023/09/15 05:23:34;;;;;;;8.15;4.88;;;9.50;99.90;;;;;;4996933;28;94255;-34
2023/09/15 05:26:00;;;;;;;6.30;3.90;;;9.60;99.90;;;;;;4994217;28;94276;-35
2023/09/15 05:28:25;;;;;;;4.50;4.10;;;9.50;99.90;;;;;;4990725;28;92915;-36
2023/09/15 05:30:57;;;;;;;5.47;4.97;;;9.50;99.90;;;;;;5028493;22;98717;-36
2023/09/15 05:33:23;;;;;;;5.90;4.82;;;9.50;99.90;;;;;;4975521;28;94307;-33
2023/09/15 05:35:48;;;;;;;8.88;7.97;;;9.50;99.90;;;;;;4982861;28;93810;-34
2023/09/15 05:38:14;;;;;;;9.10;8.20;;;9.50;99.90;;;;;;4980812;28;94078;-35
2023/09/15 05:40:40;;;;;;;7.15;4.72;;;9.60;99.90;;;;;;4992250;28;95583;-33
2023/09/15 05:43:06;;;;;;;11.75;5.35;;;9.70;99.90;;;;;;4994636;28;95091;-36
2023/09/15 05:45:33;;;;;;;6.63;4.85;;;9.60;99.90;;;;;;4994312;28;92770;-33
2023/09/15 05:47:59;;;;;;;7.13;5.82;;;9.60;99.90;;;;;;4993027;28;92715;-38
2023/09/15 05:50:25;;;;;;;5.80;4.50;;;9.70;99.90;;;;;;4993647;28;95612;-33
2023/09/15 05:52:50;;;;;;;6.15;4.97;;;9.70;99.90;;;;;;4981566;28;95002;-35
2023/09/15 05:55:16;;;;;;;8.45;4.82;;;9.70;99.90;;;;;;4994724;28;93859;-34
2023/09/15 05:57:41;;;;;;;7.82;4.97;;;9.80;99.90;;;;;;4980015;28;94577;-34
2023/09/15 06:00:07;;;;;;;6.05;5.38;;;9.80;99.90;;;;;;4993260;28;95740;-35
2023/09/15 06:02:33;;;;;;;8.35;6.00;;;9.80;99.90;;;;;;4993326;28;95706;-33
2023/09/15 06:04:59;;;;;;;9.77;6.15;;;9.90;99.90;;;;;;4993516;28;93878;-34
2023/09/15 06:07:25;;;;;;;5.13;4.63;;;9.90;99.90;;;;;;4993682;28;93085;-34
2023/09/15 06:09:50;;;;;;;7.13;6.10;;;10.00;99.90;;;;;;4994377;28;94626;-34
2023/09/15 06:12:16;;;;;;;8.70;7.80;;;10.00;99.90;;;;;;4993022;28;94541;-37
2023/09/15 06:14:41;;;;;;;17.45;9.05;;;10.00;99.90;;;;;;4994997;28;93878;-32
2023/09/15 06:17:07;;;;;;;13.95;8.73;;;10.10;99.90;;;;;;4972500;28;92211;-36
2023/09/15 06:19:33;;;;;;;14.20;6.25;;;10.10;99.90;;;;;;4993416;28;94895;-38
2023/09/15 06:21:58;;;;;;;7.40;6.22;;;10.20;99.90;;;;;;4993901;28;94463;-37
2023/09/15 06:24:24;;;;;;;11.95;9.75;;;10.20;99.90;;;;;;4994434;28;94479;-37
2023/09/15 06:26:50;;;;;;;12.20;5.88;;;10.20;99.90;;;;;;4993101;28;93273;-35
2023/09/15 06:29:15;;;;;;;8.13;5.00;;;10.20;99.90;;;;;;4992923;28;95054;-38
2023/09/15 06:31:41;;;;;;;6.97;4.95;;;10.30;99.90;;;;;;4992652;28;94624;-39
2023/09/15 06:34:07;;;;;;;6.43;5.80;;;10.30;99.90;;;;;;4993744;28;92091;-34
2023/09/15 06:36:33;;;;;;;12.90;6.55;;;10.30;99.90;;;;;;4980523;28;93892;-41
2023/09/15 06:38:59;;;;;;;8.82;5.68;;;10.40;99.90;;;;;;4979776;28;93573;-35
2023/09/15 06:41:24;;;;;;;9.82;6.45;;;10.40;99.90;;;;;;4992810;28;95408;-37
2023/09/15 06:43:50;;;;;;;8.57;5.38;;;10.50;99.90;;;;;;4993590;28;94541;-34
2023/09/15 06:46:21;;;;;;;12.00;9.15;;;10.50;99.90;;;;;;4993060;28;93273;-39
2023/09/15 06:48:48;;;;;;;7.78;5.65;;;10.50;99.90;;;;;;4973838;28;95091;-34
2023/09/15 06:51:13;;;;;;;15.52;10.45;;;10.70;99.90;;;;;;4992426;28;94877;-39
2023/09/15 06:53:39;;;;;;;12.18;9.05;;;10.70;99.90;;;;;;4994392;28;94026;-36
2023/09/15 06:56:04;;;;;;;9.30;5.40;;;10.80;99.90;;;;;;4992118;28;93099;-37
2023/09/15 06:58:30;;;;;;;7.28;6.28;;;11.00;99.90;;;;;;4994109;28;94328;-38
2023/09/15 07:00:56;;;;;;;6.47;5.47;;;11.10;99.90;;;;;;4992383;28;94066;-37
2023/09/15 07:03:23;;;;;;;7.10;6.15;;;11.30;99.90;;;;;;4988260;28;93382;-37
2023/09/15 07:05:50;;;;;;;11.50;9.90;;;11.40;99.90;;;;;;4993936;28;93575;-38
2023/09/15 07:08:15;;;;;;;9.35;6.55;;;11.60;99.90;;;;;;4974345;28;95418;-38
2023/09/15 07:10:41;;;;;;;10.10;6.90;;;11.80;99.90;;;;;;4959921;28;95345;-36
2023/09/15 07:13:06;;;;;;;7.50;6.22;;;11.90;99.90;;;;;;4981231;28;95169;-36
2023/09/15 07:15:35;;;;;;;9.38;8.40;;;12.10;99.90;;;;;;4991350;28;93759;-36
2023/09/15 07:18:03;;;;;;;6.97;6.22;;;12.10;99.90;;;;;;4991963;28;94333;-35
2023/09/15 07:20:30;;;;;;;13.85;10.60;;;12.20;99.90;;;;;;4992110;28;95019;-34
2023/09/15 07:22:56;;;;;;;12.35;9.02;;;12.30;99.90;;;;;;4992486;28;92702;-38
2023/09/15 07:25:23;;;;;;;13.30;9.70;;;12.50;99.90;;;;;;4991256;28;94230;-34
2023/09/15 07:27:50;;;;;;;12.30;6.90;;;12.60;99.90;;;;;;4974502;28;93676;-38
2023/09/15 07:30:16;;;;;;;11.02;9.65;;;12.70;99.90;;;;;;4991489;28;95067;-36
2023/09/15 07:32:42;;;;;;;11.35;10.23;;;12.90;99.90;;;;;;4992386;28;92977;-35
2023/09/15 07:35:09;;;;;;;7.25;5.78;;;13.20;99.90;;;;;;4985755;28;94185;-35
2023/09/15 07:37:35;;;;;;;21.35;10.20;;;13.30;99.90;;;;;;4977664;28;95581;-36
2023/09/15 07:40:02;;;;;;;14.57;9.88;;;13.30;99.90;;;;;;4983989;28;95427;-33
2023/09/15 07:42:28;;;;;;;9.18;7.03;;;13.50;99.90;;;;;;4974440;28;93545;-34
2023/09/15 07:44:53;;;;;;;10.48;9.02;;;13.60;99.90;;;;;;4991253;28;94954;-34
2023/09/15 07:47:19;;;;;;;11.13;9.48;;;13.80;99.90;;;;;;4991985;28;95136;-34
2023/09/15 07:49:45;;;;;;;9.68;6.85;;;13.90;99.90;;;;;;4991915;28;94450;-35
2023/09/15 07:52:11;;;;;;;6.55;5.95;;;14.10;99.90;;;;;;4992274;28;93762;-38
2023/09/15 07:54:37;;;;;;;9.63;6.55;;;14.10;99.90;;;;;;4991741;28;93418;-36
2023/09/15 07:57:03;;;;;;;11.48;8.38;;;14.30;99.90;;;;;;4977321;28;94687;-34
2023/09/15 07:59:30;;;;;;;13.15;9.65;;;14.60;99.90;;;;;;4995360;28;94909;-36
2023/09/15 08:01:56;;;;;;;10.98;9.80;;;14.80;99.90;;;;;;4995456;28;95198;-38
2023/09/15 08:04:22;;;;;;;10.77;9.68;;;15.00;99.90;;;;;;4994614;28;93193;-35
2023/09/15 08:06:49;;;;;;;12.52;8.40;;;14.90;99.90;;;;;;4995775;28;94920;-34
2023/09/15 08:09:17;;;;;;;11.43;8.83;;;15.10;99.90;;;;;;4994627;28;94659;-35
2023/09/15 08:11:43;;;;;;;12.98;8.93;;;15.20;99.90;;;;;;4996511;28;93342;-36
2023/09/15 08:14:08;;;;;;;9.95;8.63;;;15.30;99.90;;;;;;4976730;28;92866;-33
2023/09/15 08:16:34;;;;;;;10.07;8.10;;;15.60;99.90;;;;;;4994715;28;94431;-37
2023/09/15 08:19:00;;;;;;;12.90;8.70;;;;;;;;;;4994870;28;93969;-35
2023/09/15 08:21:26;;;;;;;14.80;9.15;;;15.90;99.90;;;;;;4995651;28;95030;-37
2023/09/15 08:23:52;;;;;;;13.48;8.48;;;15.90;99.90;;;;;;4996400;28;92675;-38
2023/09/15 08:26:17;;;;;;;12.63;8.52;;;16.00;99.90;;;;;;4996954;28;96934;-32
2023/09/15 08:28:43;;;;;;;11.50;7.78;;;16.20;99.90;;;;;;4979707;28;95695;-35
2023/09/15 08:31:09;;;;;;;9.73;8.05;;;16.40;99.90;;;;;;4997455;28;92168;-38
2023/09/15 08:33:35;;;;;;;9.07;7.75;;;16.60;99.90;;;;;;4996985;28;93418;-32
2023/09/15 08:36:03;;;;;;;7.35;6.68;;;16.60;99.90;;;;;;4983745;28;95488;-35
2023/09/15 08:38:31;;;;;;;7.38;6.05;;;16.60;99.90;;;;;;4982806;28;94901;-33
2023/09/15 08:41:16;;;;;;;;;;;16.70;99.90;;;;;;4996947;28;93473;-36
2023/09/15 08:43:43;;;;;;;10.55;5.70;;;16.80;99.90;;;;;;4998734;28;92723;-36
2023/09/15 08:46:10;;;;;;;8.55;6.25;;;17.10;99.90;;;;;;4995811;28;93629;-34
2023/09/15 08:48:40;;;;;;;11.77;6.80;;;17.20;99.90;;;;;;4996378;28;94707;-33
2023/09/15 08:51:06;;;;;;;12.15;5.85;;;17.00;99.90;;;;;;4997411;28;95144;-36
2023/09/15 08:53:33;;;;;;;11.02;6.32;;;17.20;99.90;;;;;;4996642;28;94616;-38
2023/09/15 08:55:59;;;;;;;7.68;6.60;;;17.40;99.90;;;;;;4997131;28;95066;-33
2023/09/15 08:58:25;;;;;;;11.48;6.93;;;17.60;99.90;;;;;;4996529;28;94203;-33
2023/09/15 09:00:53;;;;;;;10.88;7.68;;;17.70;99.90;;;;;;4997972;28;93277;-34
2023/09/15 09:03:23;;;;;;;;;;;17.90;99.90;;;;;;4984214;28;92256;-34
2023/09/15 09:05:50;;;;;;;9.82;6.47;;;18.00;99.90;;;;;;4998190;28;93407;-36
2023/09/15 09:08:21;;;;;;;10.20;6.95;;;18.10;99.90;;;;;;4977592;28;96025;-35
2023/09/15 09:10:48;;;;;;;7.80;5.85;;;17.90;99.90;;;;;;4997596;28;94917;-35
2023/09/15 09:13:14;;;;;;;7.55;6.20;;;18.00;99.90;;;;;;4997062;28;94117;-31
2023/09/15 09:15:42;;;;;;;7.45;5.95;;;17.80;99.90;;;;;;4995029;28;96529;-34
2023/09/15 09:18:18;;;;;;;7.70;5.17;;;17.90;99.90;;;;;;4996764;28;94852;-35
2023/09/15 09:20:44;;;;;;;7.65;6.05;;;17.90;99.90;;;;;;4997209;28;93107;-34
2023/09/15 09:23:10;;;;;;;9.00;5.47;;;17.90;99.90;;;;;;4997101;28;92999;-34
2023/09/15 09:25:36;;;;;;;7.93;5.80;;;18.00;99.90;;;;;;4996802;28;94512;-35
2023/09/15 09:28:03;;;;;;;8.55;5.60;;;18.00;99.90;;;;;;4996108;28;94867;-34
2023/09/15 09:30:29;;;;;;;10.38;6.15;;;18.20;99.90;;;;;;4995434;28;93854;-34
2023/09/15 09:32:58;;;;;;;7.30;5.47;;;18.30;99.90;;;;;;4996803;28;92836;-32
2023/09/15 09:35:24;;;;;;;8.32;4.55;;;18.40;99.90;;;;;;4989138;28;94185;-33
2023/09/15 09:37:52;;;;;;;8.32;5.80;;;18.50;99.90;;;;;;4984509;28;93817;-36
2023/09/15 09:40:19;;;;;;;8.57;5.43;;;18.60;99.90;;;;;;4995704;28;94006;-36
2023/09/15 09:42:45;;;;;;;6.10;5.30;;;18.60;99.90;;;;;;4997441;28;92656;-32
2023/09/15 09:45:12;;;;;;;6.63;5.10;;;18.80;99.90;;;;;;4995146;28;94686;-35
2023/09/15 09:47:37;;;;;;;9.15;5.45;;;18.90;99.90;;;;;;4996396;28;94656;-36
2023/09/15 09:50:09;;;;;;;5.57;5.05;;;19.00;99.90;;;;;;4996870;28;93119;-36
2023/09/15 09:52:39;;;;;;;9.32;5.35;;;19.00;99.90;;;;;;4996169;28;93335;-36
2023/09/15 09:55:07;;;;;;;5.20;4.13;;;18.90;99.90;;;;;;4995786;28;95402;-34
2023/09/15 09:57:33;;;;;;;6.85;4.28;;;19.00;99.90;;;;;;4996647;28;94215;-32
2023/09/15 09:59:59;;;;;;;6.50;5.25;;;19.10;99.90;;;;;;4995867;28;93090;-33
2023/09/15 10:02:26;;;;;;;5.38;4.65;;;19.30;99.90;;;;;;4996524;28;94045;-38
2023/09/15 10:04:52;;;;;;;11.02;5.10;;;19.30;99.90;;;;;;4995823;28;95408;-37
2023/09/15 10:07:17;;;;;;;9.05;5.35;;;19.40;99.90;;;;;;4995344;28;95039;-32
2023/09/15 10:09:45;;;;;;;5.80;4.00;;;19.30;99.90;;;;;;4996707;28;94368;-35
2023/09/15 10:12:12;;;;;;;7.40;4.30;;;19.50;99.90;;;;;;4995772;28;93337;-34
2023/09/15 10:14:39;;;;;;;6.15;4.03;;;19.50;99.90;;;;;;4995733;28;94806;-33
2023/09/15 10:17:05;;;;;;;5.05;3.95;;;19.60;99.90;;;;;;4994903;28;94560;-34
2023/09/15 10:19:31;;;;;;;5.40;3.75;;;19.60;99.90;;;;;;4997553;28;94942;-32
2023/09/15 10:21:57;;;;;;;6.88;3.90;;;19.40;99.90;;;;;;4995771;28;92050;-36
2023/09/15 10:24:23;;;;;;;6.60;2.88;;;19.40;99.90;;;;;;4978102;28;94853;-33
2023/09/15 10:26:48;;;;;;;5.35;3.97;;;19.40;99.90;;;;;;4977557;28;94374;-34
2023/09/15 10:29:15;;;;;;;4.63;3.47;;;19.50;99.90;;;;;;4996117;28;94046;-37
2023/09/15 10:31:42;;;;;;;7.72;4.47;;;19.60;99.90;;;;;;4995981;28;92937;-32
2023/09/15 10:34:09;;;;;;;5.78;4.15;;;19.50;99.90;;;;;;4995635;28;94677;-34
2023/09/15 10:36:34;;;;;;;7.30;5.13;;;19.60;99.90;;;;;;4982071;28;93922;-36
2023/09/15 10:39:36;;;;;;;6.07;3.28;;;19.60;99.90;;;;;;4978323;28;92186;-34
2023/09/15 10:42:06;;;;;;;4.80;3.22;;;19.80;99.90;;;;;;4957302;28;92548;-35
2023/09/15 10:44:32;;;;;;;6.53;2.75;;;19.70;99.90;;;;;;4995562;28;95818;-33
2023/09/15 10:46:59;;;;;;;3.85;2.92;;;19.80;99.90;;;;;;4995314;28;94111;-34
2023/09/15 10:49:25;;;;;;;2.63;2.42;;;19.80;99.90;;;;;;4995961;28;94778;-35
2023/09/15 10:51:56;;;;;;;5.07;3.28;;;19.80;99.90;;;;;;4995156;28;93022;-35
2023/09/15 10:54:24;;;;;;;7.35;3.92;;;19.90;99.90;;;;;;4995352;28;96013;-34
2023/09/15 10:56:50;;;;;;;3.85;3.55;;;19.80;99.90;;;;;;4995202;28;94575;-36
2023/09/15 10:59:18;;;;;;;8.50;3.58;;;19.90;99.90;;;;;;4995571;28;92971;-37
2023/09/15 11:01:45;;;;;;;5.57;3.60;;;20.00;99.90;;;;;;4996114;28;92604;-35
2023/09/15 11:04:13;;;;;;;6.25;3.10;;;20.10;99.90;;;;;;4994491;28;94711;-33
2023/09/15 11:06:39;;;;;;;;;;;20.10;99.90;;;;;;4996615;28;93888;-36
2023/09/15 11:09:06;;;;;;;11.35;4.05;;;20.10;99.90;;;;;;4996926;28;93859;-37
2023/09/15 11:11:32;;;;;;;4.78;3.20;;;20.10;99.90;;;;;;4995383;28;93067;-36
2023/09/15 11:14:00;;;;;;;3.13;2.78;;;20.10;99.90;;;;;;4994694;28;94566;-38
2023/09/15 11:16:27;;;;;;;11.20;3.87;;;20.10;99.90;;;;;;4995670;28;94591;-35
2023/09/15 11:18:54;;;;;;;3.92;3.55;;;20.10;99.90;;;;;;4995696;28;95774;-34
2023/09/15 11:21:23;;;;;;;5.97;3.28;;;20.20;99.90;;;;;;4994704;28;94547;-36
2023/09/15 11:23:49;;;;;;;6.57;3.97;;;20.10;99.90;;;;;;4994571;28;95333;-32
2023/09/15 11:26:15;;;;;;;5.93;4.32;;;20.20;99.90;;;;;;4995294;28;95678;-36
2023/09/15 11:28:40;;;;;;;7.50;3.70;;;20.10;99.90;;;;;;4995620;28;93106;-33
2023/09/15 11:31:08;;;;;;;6.47;3.50;;;20.20;99.90;;;;;;4996146;28;94883;-35
2023/09/15 11:33:34;;;;;;;4.05;3.50;;;20.30;99.90;;;;;;4998555;28;95105;-35
2023/09/15 11:36:00;;;;;;;4.10;3.10;;;20.30;99.90;;;;;;4985862;28;94569;-36
2023/09/15 11:38:27;;;;;;;4.88;3.55;;;20.20;99.90;;;;;;4979511;28;94273;-34
2023/09/15 11:40:53;;;;;;;6.10;3.60;;;20.20;99.90;;;;;;4998796;28;93737;-35
2023/09/15 11:43:25;;;;;;;4.65;3.15;;;20.30;99.90;;;;;;4997502;28;95666;-35
2023/09/15 11:45:52;;;;;;;4.18;3.63;;;20.40;99.90;;;;;;4980868;28;95743;-35
2023/09/15 11:48:21;;;;;;;4.27;3.40;;;20.40;99.90;;;;;;4997790;28;93346;-33
2023/09/15 11:50:47;;;;;;;6.97;2.78;;;20.10;99.90;;;;;;4998145;28;92950;-36
2023/09/15 11:53:13;;;;;;;6.32;3.08;;;20.30;99.90;;;;;;4998454;28;94760;-38
2023/09/15 11:55:39;;;;;;;5.65;3.47;;;20.30;99.90;;;;;;4999005;28;94811;-34
2023/09/15 11:58:05;;;;;;;8.00;3.22;;;20.40;99.90;;;;;;4979686;28;94345;-33
2023/09/15 12:00:32;;;;;;;3.70;2.67;;;20.50;99.90;;;;;;4999351;28;93911;-34
2023/09/15 12:02:59;;;;;;;5.78;3.38;;;20.50;99.90;;;;;;4997722;28;94238;-34
2023/09/15 12:05:26;;;;;;;4.28;3.38;;;20.50;99.90;;;;;;4998007;28;95719;-33
2023/09/15 12:07:53;;;;;;;4.63;4.05;;;20.50;99.90;;;;;;4997765;28;94304;-36
2023/09/15 12:10:21;;;;;;;7.15;3.22;;;20.60;99.90;;;;;;4998767;28;94784;-32
2023/09/15 12:12:47;;;;;;;4.90;4.18;;;20.60;99.90;;;;;;4997588;28;94520;-34
2023/09/15 12:15:14;;;;;;;7.45;3.38;;;20.60;99.90;;;;;;4998025;28;94586;-35
2023/09/15 12:17:44;;;;;;;4.30;3.58;;;20.30;99.90;;;;;;4998503;28;93443;-34
2023/09/15 12:20:10;;;;;;;7.28;4.30;;;20.40;99.90;;;;;;4998685;28;94077;-34
2023/09/15 12:22:44;;;;;;;11.65;4.50;;;20.50;99.90;;;;;;4984527;28;94515;-36
2023/09/15 12:25:10;;;;;;;6.00;3.20;;;20.50;99.90;;;;;;4997776;28;93493;-34
2023/09/15 12:27:40;;;;;;;6.13;3.10;;;20.50;99.90;;;;;;4998224;28;92818;-32
2023/09/15 12:30:06;;;;;;;3.85;3.42;;;20.60;99.90;;;;;;4998088;28;93734;-33
2023/09/15 12:32:34;;;;;;;8.20;3.83;;;20.70;99.90;;;;;;4997167;28;95714;-37
2023/09/15 12:35:04;;;;;;;5.15;3.65;;;20.90;99.90;;;;;;4992095;28;95306;-37
2023/09/15 12:37:34;;;;;;;5.40;4.38;;;20.90;99.90;;;;;;4983531;28;93283;-33
2023/09/15 12:40:00;;;;;;;5.15;4.47;;;20.70;99.90;;;;;;4990529;28;94357;-32
2023/09/15 12:42:26;;;;;;;4.00;3.70;;;20.70;99.90;;;;;;4996144;28;94636;-35
2023/09/15 12:44:52;;;;;;;9.60;4.38;;;20.80;99.90;;;;;;4997388;28;94233;-35